Time;durP1;ratioP1;P1;durP2;ratioP2;P2;SDS_P1;SDS_P2;PMS_P1;PMS_P2;Temp;Humidity;BMP_temperature;BMP_pressure;BME280_temperature;BME280_humidity;BME280_pressure;Samples;Min_cycle;Max_cycle;Signal;HPM_P1;HPM_P2
2022/11/21 00:00:28;;;;;;;;;76.67;54.67;;;;;0.06;100.00;99004.66;6312279;20;2898273;-59
2022/11/21 00:03:00;;;;;;;;;102.33;71.33;;;;;0.01;100.00;99000.41;6310749;20;3690897;-58
2022/11/21 00:05:31;;;;;;;;;96.67;77.33;;;;;0.06;100.00;98994.09;6274597;20;3642004;-59
2022/11/21 00:08:02;;;;;;;;;106.33;87.33;;;;;0.12;100.00;98985.97;6310797;20;3698161;-59
2022/11/21 00:10:31;;;;;;;;;112.33;87.00;;;;;0.18;100.00;98992.84;6279722;20;3712769;-59
2022/11/21 00:13:01;;;;;;;;;110.00;84.67;;;;;0.16;100.00;98992.91;6279646;20;3700297;-59
2022/11/21 00:15:31;;;;;;;;;99.00;79.67;;;;;0.14;100.00;98989.44;6277410;20;3657560;-59
2022/11/21 00:18:05;;;;;;;;;108.67;86.33;;;;;0.28;100.00;98994.28;6275885;20;3693062;-59
2022/11/21 00:20:35;;;;;;;;;116.33;94.00;;;;;0.26;100.00;98995.25;6276570;20;3689887;-57
2022/11/21 00:23:05;;;;;;;;;83.33;61.00;;;;;0.24;100.00;98989.13;6277499;20;3651507;-59
2022/11/21 00:25:36;;;;;;;;;76.67;60.33;;;;;-0.23;100.00;98979.13;6311610;20;2881595;-59
2022/11/21 00:28:06;;;;;;;;;86.00;62.67;;;;;-0.37;100.00;98976.91;6304743;20;3657721;-58
2022/11/21 00:30:36;;;;;;;;;93.33;69.00;;;;;-0.83;100.00;98967.63;6312021;20;3654467;-59
2022/11/21 00:33:05;;;;;;;;;86.00;67.00;;;;;-0.48;100.00;98969.25;6312447;20;2891956;-59
2022/11/21 00:35:35;;;;;;;;;87.67;65.67;;;;;-0.50;100.00;98975.47;6306806;20;3638794;-58
2022/11/21 00:38:04;;;;;;;;;93.00;68.00;;;;;-0.65;100.00;98978.56;6310419;20;3661731;-59
2022/11/21 00:40:34;;;;;;;;;92.67;68.00;;;;;-0.60;100.00;98980.16;6277656;20;3648204;-58
2022/11/21 00:43:03;;;;;;;;;91.33;69.00;;;;;-0.63;100.00;98976.72;6312115;20;3655524;-58
2022/11/21 00:45:33;;;;;;;;;112.00;82.67;;;;;-0.41;100.00;98969.09;6308888;20;3696089;-58
2022/11/21 00:48:03;;;;;;;;;109.33;85.00;;;;;-0.38;100.00;98964.59;6277054;20;3693018;-59
2022/11/21 00:50:33;;;;;;;;;104.00;80.00;;;;;-0.53;100.00;98959.75;6276327;20;3683603;-58
2022/11/21 00:53:02;;;;;;;;;98.00;71.67;;;;;-0.36;100.00;98956.66;6278609;20;3667042;-59
2022/11/21 00:55:32;;;;;;;;;96.00;69.67;;;;;-0.29;100.00;98956.44;6310454;20;3655468;-59
2022/11/21 00:58:02;;;;;;;;;98.33;70.67;;;;;-0.30;100.00;98959.97;6308228;20;3666916;-58
2022/11/21 01:00:31;;;;;;;;;90.67;68.00;;;;;-0.35;100.00;98958.38;6275481;20;2885957;-58
2022/11/21 01:03:01;;;;;;;;;94.67;71.67;;;;;-0.32;100.00;98958.28;6306656;20;3651362;-59
2022/11/21 01:05:32;;;;;;;;;98.33;71.33;;;;;-0.31;100.00;98966.16;6310625;20;3669006;-59
2022/11/21 01:08:01;;;;;;;;;91.33;68.67;;;;;-0.50;100.00;98954.38;6274230;20;2872132;-59
2022/11/21 01:10:33;;;;;;;;;96.00;71.67;;;;;-0.33;100.00;98957.41;6308240;20;3661795;-59
2022/11/21 01:13:02;;;;;;;;;98.00;69.67;;;;;-0.38;100.00;98942.66;6277456;20;3654421;-58
2022/11/21 01:15:33;;;;;;;;;90.00;69.00;;;;;-0.30;100.00;98941.50;6310385;20;2885803;-59
2022/11/21 01:18:03;;;;;;;;;98.33;67.67;;;;;-0.17;100.00;98930.59;6307500;20;3653384;-58
2022/11/21 01:20:32;;;;;;;;;89.67;69.00;;;;;0.01;100.00;98930.03;6309735;20;3629450;-59
2022/11/21 01:23:02;;;;;;;;;99.00;70.33;;;;;0.03;100.00;98922.03;6309820;20;3675317;-59
2022/11/21 01:25:36;;;;;;;;;98.00;69.00;;;;;0.21;100.00;98921.47;6275858;20;3666008;-59
2022/11/21 01:28:05;;;;;;;;;96.00;70.67;;;;;0.08;100.00;98926.28;6308794;20;3654476;-59
2022/11/21 01:30:35;;;;;;;;;78.67;58.33;;;;;0.13;100.00;98916.47;6308120;20;2885861;-59
2022/11/21 01:33:04;;;;;;;;;84.33;63.00;;;;;0.13;100.00;98907.66;6306936;20;3651283;-59
2022/11/21 01:35:34;;;;;;;;;96.00;68.33;;;;;0.09;100.00;98909.53;6307569;20;3662863;-58
2022/11/21 01:38:03;;;;;;;;;93.33;69.67;;;;;0.03;100.00;98895.66;6310439;20;3654416;-59
2022/11/21 01:40:40;;;;;;;;;82.67;61.00;;;;;0.14;100.00;98899.69;6312805;20;2883619;-58
2022/11/21 01:43:14;;;;;;;;;82.33;61.67;;;;;0.18;100.00;98901.31;6314891;20;3628355;-59
2022/11/21 01:46:04;;;;;;;;;87.33;62.33;;;;;-0.01;100.00;98900.19;6313183;20;3655435;-59
2022/11/21 01:49:08;;;;;;;;;83.00;64.33;;;;;-0.50;100.00;98909.56;6314838;20;3633591;-58
2022/11/21 01:52:04;;;;;;;;;89.33;66.33;;;;;-0.79;100.00;98921.84;6310424;20;3659678;-58
2022/11/21 01:54:53;;;;;;;;;94.67;69.67;;;;;-0.68;100.00;98925.03;6314935;20;3637776;-59
2022/11/21 01:57:40;;;;;;;;;91.67;67.33;;;;;-0.57;100.00;98929.13;6311034;20;3640974;-58
2022/11/21 02:00:23;;;;;;;;;92.00;68.33;;;;;-0.63;100.00;98918.75;6311336;20;3639808;-59
2022/11/21 02:03:04;;;;;;;;;96.00;69.33;;;;;-0.76;100.00;98916.47;6313271;20;3654426;-58
2022/11/21 02:05:35;;;;;;;;;94.33;69.00;;;;;-0.76;100.00;98923.53;6314374;20;3649219;-60
2022/11/21 02:08:19;;;;;;;;;91.67;68.33;;;;;-0.65;100.00;98923.22;6309833;20;3630542;-59
2022/11/21 02:11:28;;;;;;;;;95.67;71.00;;;;;-0.74;100.00;98933.13;6312356;20;3657549;-58
2022/11/21 02:13:59;;;;;;;;;94.00;69.33;;;;;-0.63;100.00;98937.19;6309932;20;3636769;-59
2022/11/21 02:16:30;;;;;;;;;89.00;66.67;;;;;-0.67;100.00;98939.06;6308800;20;3649383;-59
2022/11/21 02:19:00;;;;;;;;;93.00;68.00;;;;;-0.42;100.00;98935.72;6311764;20;3653398;-58
2022/11/21 02:22:06;;;;;;;;;94.00;70.00;;;;;-0.68;100.00;98914.47;6313271;20;3649179;-59
2022/11/21 02:24:57;;;;;;;;;82.67;63.67;;;;;-0.94;100.00;98927.53;6311565;20;3640931;-59
2022/11/21 02:27:27;;;;;;;;;84.00;64.67;;;;;-0.64;100.00;98919.66;6308731;20;2882770;-59
2022/11/21 02:29:57;;;;;;;;;89.33;65.33;;;;;-0.62;100.00;98920.50;6311342;20;3657729;-59
2022/11/21 02:32:45;;;;;;;;;92.33;68.00;;;;;-0.96;100.00;98910.88;6307766;20;2893176;-58
2022/11/21 02:35:18;;;;;;;;;87.00;66.33;;;;;-0.72;100.00;98904.06;6313117;20;3623222;-58
2022/11/21 02:38:01;;;;;;;;;103.00;72.00;;;;;-0.70;100.00;98892.56;6313341;20;3683697;-59
2022/11/21 02:40:58;;;;;;;;;98.67;71.00;;;;;-0.53;100.00;98896.47;6276426;20;3677537;-58
2022/11/21 02:43:41;;;;;;;;;90.67;66.67;;;;;-0.41;100.00;98890.84;6312892;20;3649262;-59
2022/11/21 02:46:11;;;;;;;;;94.00;69.67;;;;;-0.57;100.00;98889.59;6308300;20;3657562;-58
2022/11/21 02:48:41;;;;;;;;;94.67;69.33;;;;;-0.56;100.00;98886.88;6309514;20;3648188;-58
2022/11/21 02:51:10;;;;;;;;;87.33;60.00;;;;;-0.46;100.00;98887.50;6310257;20;3664830;-58
2022/11/21 02:53:40;;;;;;;;;89.33;68.33;;;;;-0.43;100.00;98886.53;6311034;20;3631481;-59
2022/11/21 02:56:09;;;;;;;;;86.67;64.33;;;;;-0.26;100.00;98885.13;6312324;20;3651363;-59
2022/11/21 02:58:39;;;;;;;;;80.33;63.00;;;;;-0.27;100.00;98882.50;6312064;20;3627326;-58
2022/11/21 03:01:08;;;;;;;;;85.67;62.33;;;;;-0.33;100.00;98878.31;6307767;20;3657569;-58
2022/11/21 03:03:38;;;;;;;;;79.67;59.67;;;;;-0.10;100.00;98874.09;6310938;20;2893664;-59
2022/11/21 03:06:08;;;;;;;;;77.00;57.67;;;;;0.03;100.00;98862.25;6314465;20;3624230;-59
2022/11/21 03:08:36;;;;;;;;;78.00;57.50;;;;;0.04;100.00;98861.31;6312589;20;2883658;-59
2022/11/21 03:11:06;;;;;;;;;80.33;57.00;;;;;0.01;100.00;98866.69;6279526;20;3652369;-59
2022/11/21 03:13:36;;;;;;;;;82.00;60.00;;;;;0.02;100.00;98864.91;6309178;20;3656660;-58
2022/11/21 03:16:04;;;;;;;;;61.00;42.50;;;;;-0.08;100.00;98872.25;6304932;20;2500512;-59
2022/11/21 03:18:32;;;;;;;;;71.00;52.00;;;;;-0.24;100.00;98878.03;6279503;20;2877378;-59
2022/11/21 03:21:02;;;;;;;;;86.00;60.00;;;;;-0.39;100.00;98880.28;6277848;20;3665997;-58
2022/11/21 03:23:30;;;;;;;;;67.00;55.00;;;;;-0.53;100.00;98880.66;6309302;20;2499361;-58
2022/11/21 03:25:59;;;;;;;;;73.00;54.50;;;;;-0.65;100.00;98881.91;6280710;20;2882574;-58
2022/11/21 03:28:28;;;;;;;;;77.33;57.00;;;;;-0.67;100.00;98874.03;6279213;20;2885844;-59
2022/11/21 03:30:58;;;;;;;;;83.33;60.67;;;;;-0.58;100.00;98874.66;6308642;20;3653429;-59
2022/11/21 03:33:27;;;;;;;;;82.67;60.67;;;;;-0.85;100.00;98866.66;6310111;20;3656565;-59
2022/11/21 03:35:57;;;;;;;;;81.33;58.00;;;;;-0.88;100.00;98869.38;6311456;20;2880641;-58
2022/11/21 03:38:26;;;;;;;;;72.67;58.00;;;;;-0.96;100.00;98866.09;6311778;20;2868020;-59
2022/11/21 03:40:56;;;;;;;;;81.00;59.33;;;;;-1.05;100.00;98867.22;6308206;20;3635691;-59
2022/11/21 03:43:25;;;;;;;;;77.00;54.67;;;;;-0.89;100.00;98867.66;6313643;20;2894123;-58
2022/11/21 03:45:55;;;;;;;;;80.33;61.33;;;;;-0.67;100.00;98867.91;6311846;20;3631596;-58
2022/11/21 03:48:24;;;;;;;;;83.67;59.67;;;;;-0.73;100.00;98868.09;6313954;20;2895172;-59
2022/11/21 03:50:53;;;;;;;;;88.33;63.67;;;;;-0.50;100.00;98870.03;6308291;20;3669000;-60
2022/11/21 03:53:23;;;;;;;;;87.33;64.00;;;;;-0.88;100.00;98869.38;6308619;20;3659854;-59
2022/11/21 03:55:52;;;;;;;;;90.67;66.67;;;;;-1.08;100.00;98866.44;6312965;20;3648184;-59
2022/11/21 03:58:22;;;;;;;;;81.67;61.67;;;;;-0.82;100.00;98869.19;6309564;20;3650337;-58
2022/11/21 04:00:51;;;;;;;;;84.00;61.67;;;;;-0.80;100.00;98854.22;6308678;20;3658642;-59
2022/11/21 04:03:21;;;;;;;;;85.67;63.67;;;;;-0.68;100.00;98856.50;6310018;20;3647241;-58
2022/11/21 04:05:50;;;;;;;;;75.50;57.00;;;;;-0.67;100.00;98857.34;6311928;20;2860751;-58
2022/11/21 04:08:19;;;;;;;;;78.33;60.00;;;;;-0.55;100.00;98854.38;6280505;20;2888981;-58
2022/11/21 04:10:53;;;;;;;;;89.00;66.33;;;;;-0.74;100.00;98851.41;6312782;20;3648234;-59
2022/11/21 04:13:23;;;;;;;;;86.67;63.00;;;;;-0.85;100.00;98842.94;6309116;20;2895614;-58
2022/11/21 04:15:53;;;;;;;;;84.00;61.67;;;;;-0.74;100.00;98853.16;6310195;20;3654438;-59
2022/11/21 04:18:22;;;;;;;;;85.67;61.33;;;;;-0.62;100.00;98855.44;6312945;20;3668054;-59
2022/11/21 04:20:58;;;;;;;;;89.33;61.67;;;;;-0.65;100.00;98849.41;6310477;20;3661758;-59
2022/11/21 04:23:28;;;;;;;;;72.00;53.00;;;;;-0.59;100.00;98849.22;6310882;20;2874271;-58
2022/11/21 04:25:58;;;;;;;;;90.33;64.33;;;;;-0.90;100.00;98848.31;6279508;20;3669015;-59
2022/11/21 04:28:27;;;;;;;;;74.00;53.00;;;;;-1.11;100.00;98852.47;6311058;20;2877406;-58
2022/11/21 04:31:06;;;;;;;;;76.00;56.00;;;;;-1.43;100.00;98844.56;6278636;20;2883620;-58
2022/11/21 04:33:39;;;;;;;;;86.00;63.33;;;;;-0.90;100.00;98835.16;6309729;20;3665902;-58
2022/11/21 04:36:09;;;;;;;;;85.67;63.33;;;;;-0.68;100.00;98840.69;6308070;20;3651302;-59
2022/11/21 04:38:39;;;;;;;;;84.67;63.33;;;;;-0.66;100.00;98843.25;6312572;20;3647172;-58
2022/11/21 04:41:08;;;;;;;;;87.67;65.67;;;;;-0.70;100.00;98839.00;6308151;20;3652417;-58
2022/11/21 04:43:38;;;;;;;;;85.67;61.67;;;;;-0.59;100.00;98841.31;6309800;20;2899879;-59
2022/11/21 04:46:07;;;;;;;;;78.00;57.00;;;;;-0.58;100.00;98829.84;6307726;20;2885803;-59
2022/11/21 04:48:37;;;;;;;;;80.67;60.00;;;;;-0.55;100.00;98828.00;6305316;20;3637814;-58
2022/11/21 04:51:07;;;;;;;;;75.67;57.33;;;;;-0.42;100.00;98825.84;6306307;20;2881637;-59
2022/11/21 04:53:36;;;;;;;;;81.67;56.00;;;;;-0.44;100.00;98817.13;6306576;20;3651323;-59
2022/11/21 04:56:09;;;;;;;;;72.00;54.00;;;;;-0.31;100.00;98815.81;6303254;20;2500245;-58
2022/11/21 04:58:39;;;;;;;;;76.67;58.33;;;;;-0.40;100.00;98813.47;6279493;20;3647144;-58
2022/11/21 05:01:08;;;;;;;;;79.00;59.00;;;;;-0.40;100.00;98813.47;6310389;20;2777392;-59
2022/11/21 05:03:38;;;;;;;;;81.00;60.67;;;;;-0.36;100.00;98804.56;6274955;20;2886787;-59
2022/11/21 05:06:08;;;;;;;;;80.00;60.00;;;;;-0.20;100.00;98804.06;6311192;20;3636761;-60
2022/11/21 05:08:37;;;;;;;;;82.00;60.33;;;;;-0.27;100.00;98808.66;6309453;20;2888935;-59
2022/11/21 05:13:55;;;;;;;;;84.00;61.00;;;;;-0.15;100.00;98804.78;6311835;20;3650213;-60
2022/11/21 05:16:24;;;;;;;;;82.00;62.00;;;;;-0.23;100.00;98797.97;6314313;20;3637763;-59
2022/11/21 05:18:53;;;;;;;;;76.50;60.50;;;;;-0.22;100.00;98797.06;6312972;20;2869023;-60
2022/11/21 05:21:23;;;;;;;;;82.00;57.33;;;;;-0.47;100.00;98804.03;6283666;20;3661779;-59
2022/11/21 05:23:52;;;;;;;;;83.33;61.33;;;;;-0.62;100.00;98801.88;6316234;20;2898245;-59
2022/11/21 05:26:22;;;;;;;;;86.00;63.33;;;;;-0.61;100.00;98795.69;6311336;20;3657537;-60
2022/11/21 05:28:51;;;;;;;;;90.67;65.33;;;;;-0.60;100.00;98794.78;6315093;20;3666905;-60
2022/11/21 05:31:21;;;;;;;;;96.33;68.33;;;;;-0.41;100.00;98785.38;6316166;20;3641929;-60
2022/11/21 05:33:50;;;;;;;;;92.00;67.33;;;;;-0.47;100.00;98788.22;6314208;20;3651415;-60
2022/11/21 05:36:19;;;;;;;;;74.00;54.50;;;;;-1.14;100.00;98789.31;6314645;20;2879527;-60
2022/11/21 05:38:49;;;;;;;;;80.00;58.00;;;;;-1.26;100.00;98776.53;6282840;20;2896189;-60
2022/11/21 05:41:18;;;;;;;;;81.00;60.00;;;;;-1.08;100.00;98777.72;6312881;20;3638826;-60
2022/11/21 05:43:46;;;;;;;;;74.00;56.00;;;;;-1.25;100.00;98786.13;6303378;20;2495110;-60
2022/11/21 05:46:20;;;;;;;;;77.33;59.67;;;;;-1.12;100.00;98790.13;6283672;20;2882561;-59
2022/11/21 05:48:52;;;;;;;;;85.33;64.33;;;;;-0.90;100.00;98792.13;6313486;20;3651313;-60
2022/11/21 05:51:21;;;;;;;;;79.00;60.00;;;;;-1.01;100.00;98795.09;6313381;20;2875277;-60
2022/11/21 05:53:51;;;;;;;;;79.33;59.33;;;;;-1.31;100.00;98804.75;6281675;20;3646087;-59
2022/11/21 05:56:19;;;;;;;;;58.67;30.67;;;;;-1.40;100.00;98784.78;6312293;20;3591023;-59
2022/11/21 05:58:49;;;;;;;;;78.00;58.33;;;;;-1.16;100.00;98811.34;6283200;20;2893274;-59
2022/11/21 06:04:08;;;;;;;;;80.67;59.00;;;;;-1.02;100.00;98811.81;6312322;20;3653406;-59
2022/11/21 06:06:38;;;;;;;;;80.00;58.67;;;;;-1.30;100.00;98810.88;6313539;20;3629544;-59
2022/11/21 06:09:07;;;;;;;;;70.00;54.00;;;;;-1.16;100.00;98806.06;6314865;20;2876419;-59
2022/11/21 06:11:37;;;;;;;;;77.33;57.67;;;;;-0.97;100.00;98809.91;6315357;20;3635706;-59
2022/11/21 06:14:06;;;;;;;;;83.33;61.33;;;;;-1.14;100.00;98804.25;6311126;20;2898217;-60
2022/11/21 06:16:36;;;;;;;;;81.67;62.67;;;;;-0.97;100.00;98801.16;6313036;20;2889838;-60
2022/11/21 06:19:04;;;;;;;;;65.50;53.00;;;;;-0.81;100.00;98807.69;6314991;20;2864834;-59
2022/11/21 06:21:36;;;;;;;;;86.33;62.67;;;;;-0.97;100.00;98801.16;6282171;20;2904593;-58
2022/11/21 06:24:06;;;;;;;;;78.50;59.50;;;;;-1.25;100.00;98799.28;6313005;20;2874476;-59
2022/11/21 06:26:36;;;;;;;;;84.67;64.67;;;;;-0.74;100.00;98808.34;6278458;20;2904618;-59
2022/11/21 06:29:05;;;;;;;;;94.33;65.67;;;;;-0.95;100.00;98805.47;6316036;20;3651290;-60
2022/11/21 06:31:35;;;;;;;;;86.00;65.00;;;;;-0.78;100.00;98807.59;6312451;20;3653712;-60
2022/11/21 06:34:04;;;;;;;;;92.00;68.67;;;;;-0.52;100.00;98809.44;6313061;20;3635804;-58
2022/11/21 06:36:34;;;;;;;;;86.00;62.67;;;;;-0.46;100.00;98813.66;6310716;20;3649205;-59
2022/11/21 06:39:04;;;;;;;;;97.33;70.67;;;;;-0.76;100.00;98815.47;6312572;20;3664917;-59
2022/11/21 06:41:33;;;;;;;;;98.67;73.33;;;;;-0.33;100.00;98819.41;6312770;20;3657665;-59
2022/11/21 06:44:03;;;;;;;;;107.00;80.67;;;;;-0.34;100.00;98812.41;6311257;20;3686754;-59
2022/11/21 06:46:33;;;;;;;;;100.67;80.33;;;;;-0.22;100.00;98819.94;6281334;20;3682554;-60
2022/11/21 06:49:02;;;;;;;;;99.00;76.67;;;;;-0.24;100.00;98825.28;6279705;20;3648193;-59
2022/11/21 06:51:32;;;;;;;;;94.00;71.00;;;;;0.46;100.00;98831.75;6313173;20;2897287;-59
2022/11/21 06:54:02;;;;;;;;;102.00;76.67;;;;;-0.29;100.00;98837.75;6311560;20;3683591;-60
2022/11/21 06:56:32;;;;;;;;;100.67;76.33;;;;;-0.40;100.00;98842.47;6275659;20;3674197;-59
2022/11/21 06:59:02;;;;;;;;;105.00;82.67;;;;;-0.50;100.00;98838.38;6314104;20;3702354;-59
2022/11/21 07:01:31;;;;;;;;;104.67;91.67;;;;;-0.43;100.00;98839.06;6279742;20;3680448;-59
2022/11/21 07:04:01;;;;;;;;;105.67;81.33;;;;;-0.48;100.00;98852.38;6313967;20;3707621;-59
2022/11/21 07:06:33;;;;;;;;;98.00;78.00;;;;;0.00;100.00;98849.16;6278977;20;3644155;-59
2022/11/21 07:09:03;;;;;;;;;100.33;81.33;;;;;0.36;100.00;98851.47;6314851;20;3691954;-59
2022/11/21 07:11:52;;;;;;;;;102.33;79.33;;;;;0.62;100.00;98840.03;6280266;20;3696080;-58
2022/11/21 07:14:22;;;;;;;;;98.00;75.33;;;;;0.69;100.00;98838.91;6277468;20;3660667;-59
2022/11/21 07:16:51;;;;;;;;;100.33;79.00;;;;;0.97;100.00;98837.91;6276114;20;3691913;-60
2022/11/21 07:19:22;;;;;;;;;95.67;70.67;;;;;1.26;100.00;98839.47;6280617;20;3670040;-59
2022/11/21 07:21:51;;;;;;;;;97.00;73.33;;;;;1.18;100.00;98842.38;6313150;20;3677360;-58
2022/11/21 07:24:21;;;;;;;;;97.67;80.33;;;;;0.99;100.00;98847.50;6280344;20;3663967;-59
2022/11/21 07:26:50;;;;;;;;;101.33;87.00;;;;;0.72;100.00;98841.44;6280310;20;3686777;-59
2022/11/21 07:29:20;;;;;;;;;100.00;75.33;;;;;0.74;100.00;98841.34;6282007;20;3682691;-58
2022/11/21 07:31:50;;;;;;;;;98.67;81.67;;;;;0.72;100.00;98844.06;6282505;20;3688762;-58
2022/11/21 07:34:19;;;;;;;;;102.33;88.00;;;;;0.77;100.00;98851.84;6280428;20;3683635;-58
2022/11/21 07:36:49;;;;;;;;;103.00;81.67;;;;;0.74;100.00;98846.63;6278311;20;3686834;-59
2022/11/21 07:39:19;;;;;;;;;101.00;82.00;;;;;0.93;100.00;98857.44;6279021;20;3702349;-58
2022/11/21 07:41:49;;;;;;;;;92.67;71.67;;;;;1.10;100.00;98853.25;6313894;20;3668077;-59
2022/11/21 07:44:19;;;;;;;;;114.67;90.33;;;;;1.48;100.00;98863.34;6279068;20;3701371;-60
2022/11/21 07:46:48;;;;;;;;;101.33;75.33;;;;;1.28;100.00;98858.78;6277609;20;3690936;-59
2022/11/21 07:49:18;;;;;;;;;96.33;81.00;;;;;1.44;100.00;98859.06;6280557;20;3655569;-59
2022/11/21 07:51:47;;;;;;;;;102.67;85.67;;;;;1.29;100.00;98852.56;6312771;20;3683652;-59
2022/11/21 07:54:17;;;;;;;;;99.33;81.67;;;;;1.38;100.00;98861.97;6279887;20;3684681;-59
2022/11/21 07:56:46;;;;;;;;;108.67;84.67;;;;;1.69;100.00;98848.41;6277536;20;3684732;-58
2022/11/21 07:59:18;;;;;;;;;102.00;88.67;;;;;2.03;100.00;98861.19;6279629;20;3691275;-57
2022/11/21 08:01:51;;;;;;;;;114.00;87.67;;;;;2.11;100.00;98852.94;6278910;20;3714968;-59
2022/11/21 08:04:21;;;;;;;;;100.00;86.33;;;;;2.09;100.00;98852.13;6279031;20;3682695;-58
2022/11/21 08:06:51;;;;;;;;;102.67;88.67;;;;;2.38;100.00;98849.13;6272942;20;3697138;-57
2022/11/21 08:09:20;;;;;;;;;100.33;87.67;;;;;2.38;100.00;98848.28;6279254;20;3664897;-58
2022/11/21 08:11:50;;;;;;;;;106.33;87.33;;;;;2.36;100.00;98856.28;6279954;20;3677350;-54
2022/11/21 08:14:20;;;;;;;;;103.00;78.75;;;;;2.36;100.00;98856.28;6272610;20;3732643;-58
2022/11/21 08:16:52;;;;;;;;;107.67;87.67;;;;;2.58;100.00;98860.66;6276417;20;3698302;-59
2022/11/21 08:19:21;;;;;;;;;98.67;78.33;;;;;2.07;100.00;98859.25;6275792;20;3694010;-58
2022/11/21 08:21:51;;;;;;;;;103.00;86.00;;;;;2.07;100.00;98857.47;6281946;20;3696121;-57
2022/11/21 08:24:20;;;;;;;;;100.33;87.67;;;;;2.28;100.00;98857.53;6279393;20;3682691;-59
2022/11/21 08:26:51;;;;;;;;;99.00;84.00;;;;;2.32;100.00;98859.13;6277514;20;3681813;-58
2022/11/21 08:29:20;;;;;;;;;98.00;80.33;;;;;2.16;100.00;98866.84;6280295;20;3678425;-58
2022/11/21 08:31:50;;;;;;;;;95.33;75.00;;;;;2.18;100.00;98867.63;6276936;20;3675395;-58
2022/11/21 08:34:20;;;;;;;;;100.00;83.00;;;;;1.86;100.00;98861.84;6277647;20;3686739;-58
2022/11/21 08:36:49;;;;;;;;;93.33;75.33;;;;;1.95;100.00;98866.78;6279398;20;3661764;-59
2022/11/21 08:39:19;;;;;;;;;96.33;80.33;;;;;1.81;100.00;98868.25;6278532;20;3680497;-59
2022/11/21 08:42:04;;;;;;;;;97.00;81.00;;;;;1.98;100.00;98861.34;6280880;20;3667453;-58
2022/11/21 08:44:34;;;;;;;;;100.00;85.33;;;;;2.17;100.00;98866.78;6278819;20;3664833;-59
2022/11/21 08:47:05;;;;;;;;;97.33;76.67;;;;;2.17;100.00;98872.06;6277383;20;3676299;-58
2022/11/21 08:49:35;;;;;;;;;94.67;73.33;;;;;2.27;100.00;98875.22;6283409;20;3679426;-58
2022/11/21 08:52:04;;;;;;;;;103.00;88.33;;;;;2.38;100.00;98874.75;6283985;20;3698234;-57
2022/11/21 08:54:34;;;;;;;;;99.67;78.67;;;;;2.61;100.00;98874.66;6286901;20;3698302;-57
2022/11/21 08:57:04;;;;;;;;;110.67;87.00;;;;;2.48;100.00;98875.25;6283878;20;3685753;-59
2022/11/21 08:59:34;;;;;;;;;95.33;79.67;;;;;2.94;100.00;98875.94;6288071;20;3672122;-59
2022/11/21 09:02:03;;;;;;;;;98.33;83.00;;;;;2.99;100.00;98866.84;6285134;20;3679425;-58
2022/11/21 09:04:33;;;;;;;;;90.00;65.67;;;;;2.90;100.00;98869.03;6287137;20;3654433;-59
2022/11/21 09:07:03;;;;;;;;;88.00;66.67;;;;;3.10;100.00;98876.13;6314957;20;3663791;-59
2022/11/21 09:09:33;;;;;;;;;96.00;78.00;;;;;3.21;100.00;98866.78;6281426;20;3675276;-59
2022/11/21 09:12:03;;;;;;;;;104.33;88.00;;;;;3.14;100.00;98862.66;6284510;20;3694032;-59
2022/11/21 09:20:09;;;;;;;;;84.67;64.00;;;;;3.50;100.00;98872.50;6285632;20;3640998;-58
2022/11/21 09:22:39;;;;;;;;;86.00;67.67;;;;;3.23;100.00;98872.84;6316119;20;3640916;-59
2022/11/21 09:25:09;;;;;;;;;92.33;71.67;;;;;2.56;100.00;98868.69;6319411;20;3673198;-59
2022/11/21 09:27:36;;;;;;;;;65.00;54.00;;;;;2.54;100.00;98875.84;6280845;20;2508697;-59
2022/11/21 09:30:07;;;;;;;;;94.67;70.00;;;;;2.68;100.00;98871.75;6285986;20;3671126;-60
2022/11/21 09:32:37;;;;;;;;;87.33;63.33;;;;;2.35;100.00;98873.09;6292024;20;3636709;-59
2022/11/21 09:35:07;;;;;;;;;90.00;67.67;;;;;2.04;100.00;98869.97;6315504;20;3661761;-58
2022/11/21 09:37:37;;;;;;;;;94.00;76.67;;;;;2.01;100.00;98870.09;6282892;20;3655481;-59
2022/11/21 09:40:12;;;;;;;;;73.67;47.00;;;;;2.09;100.00;98868.88;6316329;20;3572220;-59
2022/11/21 09:43:22;;;;;;;;;93.67;71.00;;;;;2.31;100.00;98870.63;6315355;20;3656578;-59
2022/11/21 09:46:14;;;;;;;;;92.67;71.00;;;;;2.84;100.00;98863.09;6313203;20;3670069;-59
2022/11/21 09:49:00;;;;;;;;;87.67;65.33;;;;;3.16;100.00;98860.81;6281527;20;3655607;-60
2022/11/21 09:51:30;;;;;;;;;93.67;76.67;;;;;2.77;100.00;98861.63;6314201;20;3669036;-59
2022/11/21 09:54:25;;;;;;;;;111.50;87.75;;;;;3.20;100.00;98859.72;6284603;20;3702341;-58
2022/11/21 09:56:56;;;;;;;;;91.33;73.33;;;;;2.62;100.00;98854.31;6311249;20;3666947;-59
2022/11/21 09:59:37;;;;;;;;;98.00;75.00;;;;;2.91;100.00;98852.22;6278388;20;3684667;-59
2022/11/21 10:02:18;;;;;;;;;90.00;77.33;;;;;2.95;100.00;98848.47;6281322;20;3662840;-59
2022/11/21 10:04:49;;;;;;;;;87.00;67.33;;;;;2.86;100.00;98847.09;6276948;20;3651331;-58
2022/11/21 10:07:29;;;;;;;;;94.00;74.67;;;;;2.89;100.00;98846.09;6279949;20;3681634;-60
2022/11/21 10:10:34;;;;;;;;;89.33;66.00;;;;;2.71;100.00;98840.66;6280513;20;3658643;-59
2022/11/21 10:13:19;;;;;;;;;89.00;69.67;;;;;2.72;100.00;98837.09;6277063;20;3656522;-59
2022/11/21 10:15:56;;;;;;;;;93.67;78.67;;;;;2.80;100.00;98845.56;6313653;20;3665994;-59
2022/11/21 10:19:00;;;;;;;;;89.33;73.00;;;;;2.52;100.00;98839.75;6275762;20;3664823;-59
2022/11/21 10:22:23;;;;;;;;;95.00;68.67;;;;;2.70;100.00;98854.84;6279550;20;3673194;-60
2022/11/21 10:25:14;;;;;;;;;89.33;66.33;;;;;2.47;100.00;98857.63;6280525;20;3642992;-60
2022/11/21 10:28:03;;;;;;;;;95.67;74.67;;;;;2.71;100.00;98867.16;6311518;20;3673179;-59
2022/11/21 10:30:33;;;;;;;;;90.00;75.67;;;;;2.71;100.00;98863.66;6282599;20;3658575;-59
2022/11/21 10:33:04;;;;;;;;;94.67;78.67;;;;;3.08;100.00;98865.56;6281794;20;3675235;-59
2022/11/21 10:35:59;;;;;;;;;91.67;72.67;;;;;3.20;100.00;98859.72;6279298;20;3681609;-59
2022/11/21 10:38:29;;;;;;;;;93.33;79.33;;;;;2.94;100.00;98867.97;6283764;20;3652462;-59
2022/11/21 10:41:20;;;;;;;;;90.67;75.67;;;;;3.21;100.00;98863.22;6281243;20;3663830;-59
2022/11/21 10:47:31;;;;;;;;;89.00;70.67;;;;;3.37;100.00;98858.97;6283818;20;3656545;-60
2022/11/21 10:50:19;;;;;;;;;92.00;72.00;;;;;3.60;100.00;98857.03;6310966;20;3673303;-58
2022/11/21 10:56:06;;;;;;;;;90.00;73.67;;;;;3.84;100.00;98839.09;6284544;20;3678419;-60
2022/11/21 10:58:55;;;;;;;;;85.67;74.00;;;;;4.02;100.00;98840.84;6278823;20;3655562;-59
2022/11/21 11:01:27;;;;;;;;;89.67;79.33;;;;;4.11;100.00;98834.25;6312332;20;3651288;-60
2022/11/21 11:04:09;;;;;;;;;111.33;94.00;;;;;4.34;100.00;98838.41;6314543;20;3681608;-59
2022/11/21 11:07:00;;;;;;;;;95.33;78.33;;;;;4.47;100.00;98828.88;6280984;20;3673206;-59
2022/11/21 11:09:34;;;;;;;;;98.00;81.00;;;;;4.28;100.00;98833.41;6280341;20;4450258;-60
2022/11/21 11:15:25;;;;;;;;;98.00;78.67;;;;;4.52;100.00;98848.13;6275917;20;3685667;-59
2022/11/21 11:18:02;;;;;;;;;101.67;84.00;;;;;4.64;100.00;98840.50;6278480;20;3688885;-59
2022/11/21 11:20:44;;;;;;;;;110.00;97.67;;;;;4.90;100.00;98847.97;6282849;20;3698173;-59
2022/11/21 11:23:19;;;;;;;;;107.33;88.00;;;;;4.90;100.00;98840.00;6280375;20;3691264;-60
2022/11/21 11:25:58;;;;;;;;;91.00;70.67;;;;;5.16;100.00;98840.41;6281337;20;3653581;-59
2022/11/21 11:28:35;;;;;;;;;134.50;113.00;;;;;5.19;100.00;98834.94;6307351;20;1949418;-60
2022/11/21 11:31:07;;;;;;;;;127.50;108.25;;;;;5.20;100.00;98839.31;6278582;20;4483607;-60
2022/11/21 11:33:40;;;;;;;;;88.00;70.00;;;;;5.31;100.00;98838.75;6281229;20;2725285;-59
2022/11/21 11:36:27;;;;;;;;;81.33;62.33;;;;;5.03;100.00;98833.09;6278862;20;3626350;-60
2022/11/21 11:38:59;;;;;;;;;91.67;70.00;;;;;5.24;100.00;98836.41;6314808;20;3678365;-59
2022/11/21 11:47:29;;;;;;;;;95.00;80.33;;;;;5.44;100.00;98839.78;6281639;20;3679504;-60
2022/11/21 11:48:07;;;;;;;;;105.33;93.00;;;;;6.12;100.00;98826.28;6275706;20;3671143;-59